Terminal Aerodrome Forecast
Issued by NWS

Home | Current Version | Previous Version | Text Only | Print | Product List | Glossary On
Versions: 1 2 3 4 5 6 7 8 9 10 11 12 13 14 15 16 17 18
000
FTUS45 KABQ 201100
TAFTCC
TAF
KTCC 201140Z 2012/2112 28005KT P6SM SCT250
      TEMPO 2012/2014 1/2SM FZFG VV001
     FM201800 23009KT P6SM SCT200=

USA.gov is the U.S. government's official web portal to all federal, state and local government web resources and services.